sensor_id;sensor_type;location;lat;lon;timestamp;P1;durP1;ratioP1;P2;durP2;ratioP2
8013;SDS011;4052;50.500;8.660;2022-08-14T00:01:59;1.80;;;1.70;;
8013;SDS011;4052;50.500;8.660;2022-08-14T00:04:25;3.73;;;2.03;;
8013;SDS011;4052;50.500;8.660;2022-08-14T00:06:51;1.83;;;1.70;;
8013;SDS011;4052;50.500;8.660;2022-08-14T00:09:17;2.53;;;2.13;;
8013;SDS011;4052;50.500;8.660;2022-08-14T00:11:43;2.23;;;1.73;;
8013;SDS011;4052;50.500;8.660;2022-08-14T00:14:09;2.13;;;1.90;;
8013;SDS011;4052;50.500;8.660;2022-08-14T00:16:35;2.83;;;2.20;;
8013;SDS011;4052;50.500;8.660;2022-08-14T00:19:02;3.33;;;2.17;;
8013;SDS011;4052;50.500;8.660;2022-08-14T00:21:28;3.60;;;2.20;;
8013;SDS011;4052;50.500;8.660;2022-08-14T00:23:54;2.97;;;2.13;;
8013;SDS011;4052;50.500;8.660;2022-08-14T00:26:21;4.83;;;2.33;;
8013;SDS011;4052;50.500;8.660;2022-08-14T00:28:47;2.10;;;1.90;;
8013;SDS011;4052;50.500;8.660;2022-08-14T00:31:13;2.63;;;2.43;;
8013;SDS011;4052;50.500;8.660;2022-08-14T00:33:39;2.80;;;2.10;;
8013;SDS011;4052;50.500;8.660;2022-08-14T00:36:05;2.70;;;2.00;;
8013;SDS011;4052;50.500;8.660;2022-08-14T00:38:33;2.67;;;1.83;;
8013;SDS011;4052;50.500;8.660;2022-08-14T00:40:59;2.00;;;1.80;;
8013;SDS011;4052;50.500;8.660;2022-08-14T00:43:25;2.80;;;2.23;;
8013;SDS011;4052;50.500;8.660;2022-08-14T00:45:51;2.40;;;2.20;;
8013;SDS011;4052;50.500;8.660;2022-08-14T00:48:17;2.27;;;1.90;;
8013;SDS011;4052;50.500;8.660;2022-08-14T00:50:43;2.17;;;1.97;;
8013;SDS011;4052;50.500;8.660;2022-08-14T00:53:10;3.00;;;1.77;;
8013;SDS011;4052;50.500;8.660;2022-08-14T00:55:36;2.00;;;1.80;;
8013;SDS011;4052;50.500;8.660;2022-08-14T00:58:05;2.80;;;2.60;;
8013;SDS011;4052;50.500;8.660;2022-08-14T01:00:49;2.97;;;2.10;;
8013;SDS011;4052;50.500;8.660;2022-08-14T01:03:17;2.20;;;2.00;;
8013;SDS011;4052;50.500;8.660;2022-08-14T01:05:44;2.20;;;2.00;;
8013;SDS011;4052;50.500;8.660;2022-08-14T01:08:13;2.60;;;1.93;;
8013;SDS011;4052;50.500;8.660;2022-08-14T01:10:40;1.47;;;1.37;;
8013;SDS011;4052;50.500;8.660;2022-08-14T01:13:19;2.07;;;1.93;;
8013;SDS011;4052;50.500;8.660;2022-08-14T01:15:47;2.67;;;2.47;;
8013;SDS011;4052;50.500;8.660;2022-08-14T01:18:13;1.93;;;1.70;;
8013;SDS011;4052;50.500;8.660;2022-08-14T01:20:58;2.77;;;2.23;;
8013;SDS011;4052;50.500;8.660;2022-08-14T01:23:30;2.40;;;2.20;;
8013;SDS011;4052;50.500;8.660;2022-08-14T01:25:57;2.37;;;2.17;;
8013;SDS011;4052;50.500;8.660;2022-08-14T01:28:23;3.30;;;2.27;;
8013;SDS011;4052;50.500;8.660;2022-08-14T01:30:55;3.13;;;2.20;;
8013;SDS011;4052;50.500;8.660;2022-08-14T01:33:22;2.23;;;2.00;;
8013;SDS011;4052;50.500;8.660;2022-08-14T01:35:52;2.67;;;2.23;;
8013;SDS011;4052;50.500;8.660;2022-08-14T01:38:23;2.80;;;2.30;;
8013;SDS011;4052;50.500;8.660;2022-08-14T01:40:50;2.00;;;1.80;;
8013;SDS011;4052;50.500;8.660;2022-08-14T01:43:17;3.20;;;2.27;;
8013;SDS011;4052;50.500;8.660;2022-08-14T01:45:43;2.10;;;1.70;;
8013;SDS011;4052;50.500;8.660;2022-08-14T01:48:09;2.37;;;2.00;;
8013;SDS011;4052;50.500;8.660;2022-08-14T01:50:35;1.97;;;1.77;;
8013;SDS011;4052;50.500;8.660;2022-08-14T01:53:02;2.83;;;2.13;;
8013;SDS011;4052;50.500;8.660;2022-08-14T01:55:29;3.67;;;2.83;;
8013;SDS011;4052;50.500;8.660;2022-08-14T01:57:56;2.20;;;1.87;;
8013;SDS011;4052;50.500;8.660;2022-08-14T02:00:22;3.03;;;1.70;;
8013;SDS011;4052;50.500;8.660;2022-08-14T02:02:48;2.23;;;2.00;;
8013;SDS011;4052;50.500;8.660;2022-08-14T02:05:14;2.50;;;2.30;;
8013;SDS011;4052;50.500;8.660;2022-08-14T02:07:41;2.20;;;2.00;;
8013;SDS011;4052;50.500;8.660;2022-08-14T02:10:10;4.00;;;2.57;;
8013;SDS011;4052;50.500;8.660;2022-08-14T02:12:37;2.93;;;2.23;;
8013;SDS011;4052;50.500;8.660;2022-08-14T02:15:03;2.63;;;1.90;;
8013;SDS011;4052;50.500;8.660;2022-08-14T02:17:31;3.50;;;2.70;;
8013;SDS011;4052;50.500;8.660;2022-08-14T02:19:57;2.60;;;2.40;;
8013;SDS011;4052;50.500;8.660;2022-08-14T02:22:24;2.47;;;1.90;;
8013;SDS011;4052;50.500;8.660;2022-08-14T02:24:50;2.53;;;2.20;;
8013;SDS011;4052;50.500;8.660;2022-08-14T02:27:16;2.13;;;1.87;;
8013;SDS011;4052;50.500;8.660;2022-08-14T02:29:42;2.37;;;2.17;;
8013;SDS011;4052;50.500;8.660;2022-08-14T02:32:09;4.30;;;2.27;;
8013;SDS011;4052;50.500;8.660;2022-08-14T02:34:37;3.53;;;2.67;;
8013;SDS011;4052;50.500;8.660;2022-08-14T02:37:07;2.63;;;2.33;;
8013;SDS011;4052;50.500;8.660;2022-08-14T02:39:38;2.37;;;2.17;;
8013;SDS011;4052;50.500;8.660;2022-08-14T02:42:06;2.87;;;2.13;;
8013;SDS011;4052;50.500;8.660;2022-08-14T02:44:32;3.90;;;2.43;;
8013;SDS011;4052;50.500;8.660;2022-08-14T02:46:59;2.10;;;1.90;;
8013;SDS011;4052;50.500;8.660;2022-08-14T02:49:25;2.90;;;2.43;;
8013;SDS011;4052;50.500;8.660;2022-08-14T02:51:53;2.47;;;2.10;;
8013;SDS011;4052;50.500;8.660;2022-08-14T02:54:19;2.80;;;2.53;;
8013;SDS011;4052;50.500;8.660;2022-08-14T02:56:49;2.80;;;2.50;;
8013;SDS011;4052;50.500;8.660;2022-08-14T02:59:15;2.40;;;2.20;;
8013;SDS011;4052;50.500;8.660;2022-08-14T03:01:41;2.50;;;1.90;;
8013;SDS011;4052;50.500;8.660;2022-08-14T03:04:08;2.47;;;2.27;;
8013;SDS011;4052;50.500;8.660;2022-08-14T03:06:34;3.60;;;2.50;;
8013;SDS011;4052;50.500;8.660;2022-08-14T03:09:00;3.47;;;2.90;;
8013;SDS011;4052;50.500;8.660;2022-08-14T03:11:26;3.30;;;2.20;;
8013;SDS011;4052;50.500;8.660;2022-08-14T03:13:52;3.50;;;2.73;;
8013;SDS011;4052;50.500;8.660;2022-08-14T03:16:20;3.23;;;2.33;;
8013;SDS011;4052;50.500;8.660;2022-08-14T03:18:46;2.37;;;2.10;;
8013;SDS011;4052;50.500;8.660;2022-08-14T03:21:13;2.77;;;2.23;;
8013;SDS011;4052;50.500;8.660;2022-08-14T03:23:40;2.57;;;2.37;;
8013;SDS011;4052;50.500;8.660;2022-08-14T03:26:07;3.77;;;2.93;;
8013;SDS011;4052;50.500;8.660;2022-08-14T03:28:33;3.53;;;2.40;;
8013;SDS011;4052;50.500;8.660;2022-08-14T03:31:00;3.53;;;2.70;;
8013;SDS011;4052;50.500;8.660;2022-08-14T03:33:26;5.43;;;3.00;;
8013;SDS011;4052;50.500;8.660;2022-08-14T03:35:52;5.27;;;2.40;;
8013;SDS011;4052;50.500;8.660;2022-08-14T03:38:18;3.07;;;2.30;;
8013;SDS011;4052;50.500;8.660;2022-08-14T03:40:45;3.57;;;3.00;;
8013;SDS011;4052;50.500;8.660;2022-08-14T03:43:14;5.87;;;2.70;;
8013;SDS011;4052;50.500;8.660;2022-08-14T03:45:40;4.20;;;2.57;;
8013;SDS011;4052;50.500;8.660;2022-08-14T03:48:16;2.80;;;2.53;;
8013;SDS011;4052;50.500;8.660;2022-08-14T03:50:45;3.90;;;2.30;;
8013;SDS011;4052;50.500;8.660;2022-08-14T03:53:12;2.50;;;2.03;;
8013;SDS011;4052;50.500;8.660;2022-08-14T03:55:38;2.53;;;2.33;;
8013;SDS011;4052;50.500;8.660;2022-08-14T03:58:07;3.60;;;2.37;;
8013;SDS011;4052;50.500;8.660;2022-08-14T04:00:34;2.77;;;2.37;;
8013;SDS011;4052;50.500;8.660;2022-08-14T04:03:01;2.37;;;1.80;;
8013;SDS011;4052;50.500;8.660;2022-08-14T04:05:29;4.83;;;3.03;;
8013;SDS011;4052;50.500;8.660;2022-08-14T04:07:55;2.73;;;2.53;;
8013;SDS011;4052;50.500;8.660;2022-08-14T04:10:22;2.77;;;2.50;;
8013;SDS011;4052;50.500;8.660;2022-08-14T04:12:48;3.40;;;2.57;;
8013;SDS011;4052;50.500;8.660;2022-08-14T04:15:14;2.50;;;2.30;;
8013;SDS011;4052;50.500;8.660;2022-08-14T04:17:43;3.00;;;2.70;;
8013;SDS011;4052;50.500;8.660;2022-08-14T04:20:09;6.17;;;2.47;;
8013;SDS011;4052;50.500;8.660;2022-08-14T04:22:36;2.03;;;1.93;;
8013;SDS011;4052;50.500;8.660;2022-08-14T04:25:07;3.17;;;2.13;;
8013;SDS011;4052;50.500;8.660;2022-08-14T04:27:34;2.13;;;2.00;;
8013;SDS011;4052;50.500;8.660;2022-08-14T04:30:00;2.90;;;2.50;;
8013;SDS011;4052;50.500;8.660;2022-08-14T04:32:26;3.30;;;3.00;;
8013;SDS011;4052;50.500;8.660;2022-08-14T04:34:52;3.57;;;2.63;;
8013;SDS011;4052;50.500;8.660;2022-08-14T04:37:22;4.13;;;2.33;;
8013;SDS011;4052;50.500;8.660;2022-08-14T04:40:07;3.97;;;2.70;;
8013;SDS011;4052;50.500;8.660;2022-08-14T04:42:52;4.77;;;2.80;;
8013;SDS011;4052;50.500;8.660;2022-08-14T04:45:37;3.67;;;2.33;;
8013;SDS011;4052;50.500;8.660;2022-08-14T04:48:07;2.27;;;2.07;;
8013;SDS011;4052;50.500;8.660;2022-08-14T04:50:40;2.77;;;1.93;;
8013;SDS011;4052;50.500;8.660;2022-08-14T04:53:07;4.93;;;3.07;;
8013;SDS011;4052;50.500;8.660;2022-08-14T04:55:34;2.33;;;2.10;;
8013;SDS011;4052;50.500;8.660;2022-08-14T04:58:02;2.87;;;2.30;;
8013;SDS011;4052;50.500;8.660;2022-08-14T05:00:29;3.80;;;2.40;;
8013;SDS011;4052;50.500;8.660;2022-08-14T05:02:55;2.13;;;1.93;;
8013;SDS011;4052;50.500;8.660;2022-08-14T05:05:22;3.07;;;2.20;;
8013;SDS011;4052;50.500;8.660;2022-08-14T05:07:49;1.90;;;1.80;;
8013;SDS011;4052;50.500;8.660;2022-08-14T05:10:14;4.73;;;2.87;;
8013;SDS011;4052;50.500;8.660;2022-08-14T05:12:40;2.43;;;2.23;;
8013;SDS011;4052;50.500;8.660;2022-08-14T05:15:06;4.37;;;2.20;;
8013;SDS011;4052;50.500;8.660;2022-08-14T05:17:39;3.23;;;2.30;;
8013;SDS011;4052;50.500;8.660;2022-08-14T05:20:05;3.97;;;3.03;;
8013;SDS011;4052;50.500;8.660;2022-08-14T05:22:32;2.80;;;2.53;;
8013;SDS011;4052;50.500;8.660;2022-08-14T05:24:58;5.07;;;3.33;;
8013;SDS011;4052;50.500;8.660;2022-08-14T05:27:25;3.40;;;2.93;;
8013;SDS011;4052;50.500;8.660;2022-08-14T05:29:51;3.77;;;2.73;;
8013;SDS011;4052;50.500;8.660;2022-08-14T05:32:19;7.43;;;5.27;;
8013;SDS011;4052;50.500;8.660;2022-08-14T05:34:45;4.43;;;3.20;;
8013;SDS011;4052;50.500;8.660;2022-08-14T05:37:11;4.50;;;3.07;;
8013;SDS011;4052;50.500;8.660;2022-08-14T05:39:38;4.17;;;3.20;;
8013;SDS011;4052;50.500;8.660;2022-08-14T05:42:05;6.53;;;4.07;;
8013;SDS011;4052;50.500;8.660;2022-08-14T05:44:31;3.53;;;3.17;;
8013;SDS011;4052;50.500;8.660;2022-08-14T05:46:57;3.30;;;2.73;;
8013;SDS011;4052;50.500;8.660;2022-08-14T05:49:23;5.07;;;2.87;;
8013;SDS011;4052;50.500;8.660;2022-08-14T05:51:50;4.97;;;4.03;;
8013;SDS011;4052;50.500;8.660;2022-08-14T05:54:15;5.43;;;3.50;;
8013;SDS011;4052;50.500;8.660;2022-08-14T05:56:41;3.37;;;2.37;;
8013;SDS011;4052;50.500;8.660;2022-08-14T05:59:09;3.17;;;2.87;;
8013;SDS011;4052;50.500;8.660;2022-08-14T06:01:36;4.70;;;3.07;;
8013;SDS011;4052;50.500;8.660;2022-08-14T06:04:02;3.73;;;2.40;;
8013;SDS011;4052;50.500;8.660;2022-08-14T06:06:28;3.57;;;2.87;;
8013;SDS011;4052;50.500;8.660;2022-08-14T06:08:54;5.17;;;3.30;;
8013;SDS011;4052;50.500;8.660;2022-08-14T06:11:20;15.33;;;7.57;;
8013;SDS011;4052;50.500;8.660;2022-08-14T06:13:46;12.87;;;6.43;;
8013;SDS011;4052;50.500;8.660;2022-08-14T06:16:15;4.67;;;3.20;;
8013;SDS011;4052;50.500;8.660;2022-08-14T06:18:41;5.33;;;3.63;;
8013;SDS011;4052;50.500;8.660;2022-08-14T06:21:07;3.53;;;2.63;;
8013;SDS011;4052;50.500;8.660;2022-08-14T06:23:33;3.70;;;3.30;;
8013;SDS011;4052;50.500;8.660;2022-08-14T06:25:59;3.90;;;3.40;;
8013;SDS011;4052;50.500;8.660;2022-08-14T06:28:26;6.43;;;3.33;;
8013;SDS011;4052;50.500;8.660;2022-08-14T06:30:52;3.90;;;3.50;;
8013;SDS011;4052;50.500;8.660;2022-08-14T06:33:18;3.53;;;2.87;;
8013;SDS011;4052;50.500;8.660;2022-08-14T06:35:45;4.47;;;3.03;;
8013;SDS011;4052;50.500;8.660;2022-08-14T06:38:18;4.83;;;3.80;;
8013;SDS011;4052;50.500;8.660;2022-08-14T06:40:45;4.27;;;3.83;;
8013;SDS011;4052;50.500;8.660;2022-08-14T06:43:11;5.70;;;3.67;;
8013;SDS011;4052;50.500;8.660;2022-08-14T06:45:38;7.73;;;3.67;;
8013;SDS011;4052;50.500;8.660;2022-08-14T06:48:11;4.23;;;3.30;;
8013;SDS011;4052;50.500;8.660;2022-08-14T06:50:38;5.67;;;3.53;;
8013;SDS011;4052;50.500;8.660;2022-08-14T06:53:04;3.33;;;3.03;;
8013;SDS011;4052;50.500;8.660;2022-08-14T06:55:31;5.00;;;3.53;;
8013;SDS011;4052;50.500;8.660;2022-08-14T06:57:57;3.97;;;3.57;;
8013;SDS011;4052;50.500;8.660;2022-08-14T07:00:24;4.83;;;2.80;;
8013;SDS011;4052;50.500;8.660;2022-08-14T07:02:51;2.63;;;2.43;;
8013;SDS011;4052;50.500;8.660;2022-08-14T07:05:36;5.53;;;3.00;;
8013;SDS011;4052;50.500;8.660;2022-08-14T07:10:41;6.20;;;3.53;;
8013;SDS011;4052;50.500;8.660;2022-08-14T07:13:08;3.80;;;3.10;;
8013;SDS011;4052;50.500;8.660;2022-08-14T07:15:34;5.27;;;3.30;;
8013;SDS011;4052;50.500;8.660;2022-08-14T07:18:00;3.43;;;3.00;;
8013;SDS011;4052;50.500;8.660;2022-08-14T07:20:27;4.07;;;3.33;;
8013;SDS011;4052;50.500;8.660;2022-08-14T07:22:54;4.40;;;3.10;;
8013;SDS011;4052;50.500;8.660;2022-08-14T07:25:23;3.37;;;2.77;;
8013;SDS011;4052;50.500;8.660;2022-08-14T07:27:49;3.47;;;2.90;;
8013;SDS011;4052;50.500;8.660;2022-08-14T07:30:15;3.93;;;3.20;;
8013;SDS011;4052;50.500;8.660;2022-08-14T07:32:41;3.23;;;2.73;;
8013;SDS011;4052;50.500;8.660;2022-08-14T07:35:07;3.97;;;3.00;;
8013;SDS011;4052;50.500;8.660;2022-08-14T07:37:33;3.13;;;2.67;;
8013;SDS011;4052;50.500;8.660;2022-08-14T07:40:00;4.50;;;2.80;;
8013;SDS011;4052;50.500;8.660;2022-08-14T07:42:25;4.37;;;2.67;;
8013;SDS011;4052;50.500;8.660;2022-08-14T07:44:53;3.23;;;2.80;;
8013;SDS011;4052;50.500;8.660;2022-08-14T07:47:19;4.87;;;3.27;;
8013;SDS011;4052;50.500;8.660;2022-08-14T07:49:52;3.50;;;2.70;;
8013;SDS011;4052;50.500;8.660;2022-08-14T07:52:19;2.97;;;2.53;;
8013;SDS011;4052;50.500;8.660;2022-08-14T07:54:45;3.63;;;3.27;;
8013;SDS011;4052;50.500;8.660;2022-08-14T07:57:11;3.77;;;2.80;;
8013;SDS011;4052;50.500;8.660;2022-08-14T07:59:37;3.83;;;2.60;;
8013;SDS011;4052;50.500;8.660;2022-08-14T08:02:05;4.80;;;2.53;;
8013;SDS011;4052;50.500;8.660;2022-08-14T08:04:31;3.30;;;2.53;;
8013;SDS011;4052;50.500;8.660;2022-08-14T08:06:58;2.63;;;2.40;;
8013;SDS011;4052;50.500;8.660;2022-08-14T08:09:25;2.77;;;2.53;;
8013;SDS011;4052;50.500;8.660;2022-08-14T08:11:51;2.67;;;2.40;;
8013;SDS011;4052;50.500;8.660;2022-08-14T08:14:19;3.00;;;2.80;;
8013;SDS011;4052;50.500;8.660;2022-08-14T08:16:45;2.87;;;2.57;;
8013;SDS011;4052;50.500;8.660;2022-08-14T08:19:11;2.50;;;2.30;;
8013;SDS011;4052;50.500;8.660;2022-08-14T08:21:38;3.40;;;2.77;;
8013;SDS011;4052;50.500;8.660;2022-08-14T08:24:04;3.20;;;2.67;;
8013;SDS011;4052;50.500;8.660;2022-08-14T08:26:30;2.90;;;2.60;;
8013;SDS011;4052;50.500;8.660;2022-08-14T08:28:56;2.93;;;2.60;;
8013;SDS011;4052;50.500;8.660;2022-08-14T08:31:22;3.20;;;2.40;;
8013;SDS011;4052;50.500;8.660;2022-08-14T08:33:52;2.97;;;2.70;;
8013;SDS011;4052;50.500;8.660;2022-08-14T08:36:18;2.30;;;2.13;;
8013;SDS011;4052;50.500;8.660;2022-08-14T08:38:44;2.77;;;2.40;;
8013;SDS011;4052;50.500;8.660;2022-08-14T08:41:12;2.63;;;2.43;;
8013;SDS011;4052;50.500;8.660;2022-08-14T08:43:38;2.57;;;2.37;;
8013;SDS011;4052;50.500;8.660;2022-08-14T08:46:06;4.07;;;2.60;;
8013;SDS011;4052;50.500;8.660;2022-08-14T08:48:46;3.03;;;2.50;;
8013;SDS011;4052;50.500;8.660;2022-08-14T08:51:20;2.83;;;2.60;;
8013;SDS011;4052;50.500;8.660;2022-08-14T08:53:54;3.40;;;2.90;;
8013;SDS011;4052;50.500;8.660;2022-08-14T08:56:20;2.60;;;2.40;;
8013;SDS011;4052;50.500;8.660;2022-08-14T08:58:47;3.07;;;2.30;;
8013;SDS011;4052;50.500;8.660;2022-08-14T09:01:13;2.53;;;2.17;;
8013;SDS011;4052;50.500;8.660;2022-08-14T09:03:39;2.80;;;2.30;;
8013;SDS011;4052;50.500;8.660;2022-08-14T09:06:06;5.23;;;2.50;;
8013;SDS011;4052;50.500;8.660;2022-08-14T09:08:33;3.60;;;2.60;;
8013;SDS011;4052;50.500;8.660;2022-08-14T09:11:03;2.73;;;2.33;;
8013;SDS011;4052;50.500;8.660;2022-08-14T09:13:31;2.83;;;2.53;;
8013;SDS011;4052;50.500;8.660;2022-08-14T09:15:57;2.60;;;2.40;;
8013;SDS011;4052;50.500;8.660;2022-08-14T09:18:24;2.40;;;2.20;;
8013;SDS011;4052;50.500;8.660;2022-08-14T09:20:52;2.90;;;2.57;;
8013;SDS011;4052;50.500;8.660;2022-08-14T09:23:18;3.13;;;2.83;;
8013;SDS011;4052;50.500;8.660;2022-08-14T09:25:45;3.20;;;2.27;;
8013;SDS011;4052;50.500;8.660;2022-08-14T09:28:12;3.47;;;2.60;;
8013;SDS011;4052;50.500;8.660;2022-08-14T09:30:48;2.40;;;2.20;;
8013;SDS011;4052;50.500;8.660;2022-08-14T09:44:04;2.53;;;2.33;;
8013;SDS011;4052;50.500;8.660;2022-08-14T09:46:31;3.40;;;2.27;;
8013;SDS011;4052;50.500;8.660;2022-08-14T09:48:58;2.10;;;1.90;;
8013;SDS011;4052;50.500;8.660;2022-08-14T09:51:24;1.77;;;1.67;;
8013;SDS011;4052;50.500;8.660;2022-08-14T09:53:58;3.20;;;2.00;;
8013;SDS011;4052;50.500;8.660;2022-08-14T09:56:24;2.13;;;1.93;;
8013;SDS011;4052;50.500;8.660;2022-08-14T09:58:50;2.43;;;1.97;;
8013;SDS011;4052;50.500;8.660;2022-08-14T10:01:17;3.20;;;2.50;;
8013;SDS011;4052;50.500;8.660;2022-08-14T10:03:50;2.30;;;1.87;;
8013;SDS011;4052;50.500;8.660;2022-08-14T10:06:18;2.20;;;1.90;;
8013;SDS011;4052;50.500;8.660;2022-08-14T10:13:44;2.73;;;2.13;;
8013;SDS011;4052;50.500;8.660;2022-08-14T10:16:10;2.50;;;2.30;;
8013;SDS011;4052;50.500;8.660;2022-08-14T10:18:37;1.90;;;1.70;;
8013;SDS011;4052;50.500;8.660;2022-08-14T10:21:03;1.83;;;1.73;;
8013;SDS011;4052;50.500;8.660;2022-08-14T10:23:39;2.00;;;1.80;;
8013;SDS011;4052;50.500;8.660;2022-08-14T10:26:07;2.13;;;1.90;;
8013;SDS011;4052;50.500;8.660;2022-08-14T10:28:37;2.57;;;1.83;;
8013;SDS011;4052;50.500;8.660;2022-08-14T10:31:14;2.40;;;2.20;;
8013;SDS011;4052;50.500;8.660;2022-08-14T10:33:40;2.30;;;2.10;;
8013;SDS011;4052;50.500;8.660;2022-08-14T10:36:07;2.50;;;2.30;;
8013;SDS011;4052;50.500;8.660;2022-08-14T10:38:34;2.23;;;2.03;;
8013;SDS011;4052;50.500;8.660;2022-08-14T10:41:10;2.00;;;1.90;;
8013;SDS011;4052;50.500;8.660;2022-08-14T10:43:37;3.17;;;1.97;;
8013;SDS011;4052;50.500;8.660;2022-08-14T10:46:10;1.77;;;1.67;;
8013;SDS011;4052;50.500;8.660;2022-08-14T10:48:36;2.50;;;2.20;;
8013;SDS011;4052;50.500;8.660;2022-08-14T10:51:02;2.03;;;1.83;;
8013;SDS011;4052;50.500;8.660;2022-08-14T10:53:32;1.97;;;1.87;;
8013;SDS011;4052;50.500;8.660;2022-08-14T10:55:59;6.40;;;2.30;;
8013;SDS011;4052;50.500;8.660;2022-08-14T10:58:28;2.40;;;2.20;;
8013;SDS011;4052;50.500;8.660;2022-08-14T11:00:56;3.28;;;1.85;;
8013;SDS011;4052;50.500;8.660;2022-08-14T11:03:22;2.03;;;1.80;;
8013;SDS011;4052;50.500;8.660;2022-08-14T11:05:50;2.20;;;1.88;;
8013;SDS011;4052;50.500;8.660;2022-08-14T11:08:17;3.23;;;2.10;;
8013;SDS011;4052;50.500;8.660;2022-08-14T11:10:44;2.80;;;2.00;;
8013;SDS011;4052;50.500;8.660;2022-08-14T11:13:17;1.90;;;1.53;;
8013;SDS011;4052;50.500;8.660;2022-08-14T11:15:43;2.08;;;1.92;;
8013;SDS011;4052;50.500;8.660;2022-08-14T11:18:16;2.03;;;1.88;;
8013;SDS011;4052;50.500;8.660;2022-08-14T11:20:45;3.50;;;2.33;;
8013;SDS011;4052;50.500;8.660;2022-08-14T11:23:13;2.67;;;1.90;;
8013;SDS011;4052;50.500;8.660;2022-08-14T11:25:41;2.42;;;2.20;;
8013;SDS011;4052;50.500;8.660;2022-08-14T11:28:10;2.72;;;2.53;;
8013;SDS011;4052;50.500;8.660;2022-08-14T11:30:38;2.10;;;1.90;;
8013;SDS011;4052;50.500;8.660;2022-08-14T11:33:06;1.75;;;1.63;;
8013;SDS011;4052;50.500;8.660;2022-08-14T11:35:32;1.95;;;1.85;;
8013;SDS011;4052;50.500;8.660;2022-08-14T11:38:00;1.63;;;1.52;;
8013;SDS011;4052;50.500;8.660;2022-08-14T11:40:27;2.35;;;2.03;;
8013;SDS011;4052;50.500;8.660;2022-08-14T11:42:55;1.83;;;1.73;;
8013;SDS011;4052;50.500;8.660;2022-08-14T11:45:25;3.95;;;2.13;;
8013;SDS011;4052;50.500;8.660;2022-08-14T11:47:52;1.85;;;1.75;;
8013;SDS011;4052;50.500;8.660;2022-08-14T11:50:21;1.80;;;1.70;;
8013;SDS011;4052;50.500;8.660;2022-08-14T11:52:48;2.05;;;1.95;;
8013;SDS011;4052;50.500;8.660;2022-08-14T11:55:14;1.65;;;1.48;;
8013;SDS011;4052;50.500;8.660;2022-08-14T11:57:43;3.25;;;2.00;;
8013;SDS011;4052;50.500;8.660;2022-08-14T12:00:13;2.20;;;1.65;;
8013;SDS011;4052;50.500;8.660;2022-08-14T12:02:54;2.13;;;1.75;;
8013;SDS011;4052;50.500;8.660;2022-08-14T12:05:36;5.47;;;2.60;;
8013;SDS011;4052;50.500;8.660;2022-08-14T12:08:03;1.95;;;1.80;;
8013;SDS011;4052;50.500;8.660;2022-08-14T12:10:33;1.48;;;1.38;;
8013;SDS011;4052;50.500;8.660;2022-08-14T12:13:16;1.90;;;1.75;;
8013;SDS011;4052;50.500;8.660;2022-08-14T12:15:43;1.60;;;1.50;;
8013;SDS011;4052;50.500;8.660;2022-08-14T12:18:09;1.58;;;1.48;;
8013;SDS011;4052;50.500;8.660;2022-08-14T12:20:37;1.95;;;1.60;;
8013;SDS011;4052;50.500;8.660;2022-08-14T12:23:04;2.00;;;1.80;;
8013;SDS011;4052;50.500;8.660;2022-08-14T12:25:30;2.22;;;2.00;;
8013;SDS011;4052;50.500;8.660;2022-08-14T12:27:57;1.92;;;1.75;;
8013;SDS011;4052;50.500;8.660;2022-08-14T12:30:41;1.67;;;1.52;;
8013;SDS011;4052;50.500;8.660;2022-08-14T12:33:26;1.40;;;1.30;;
8013;SDS011;4052;50.500;8.660;2022-08-14T12:35:54;1.63;;;1.52;;
8013;SDS011;4052;50.500;8.660;2022-08-14T12:38:32;1.40;;;1.30;;
8013;SDS011;4052;50.500;8.660;2022-08-14T12:41:00;1.40;;;1.30;;
8013;SDS011;4052;50.500;8.660;2022-08-14T12:43:26;1.58;;;1.48;;
8013;SDS011;4052;50.500;8.660;2022-08-14T12:45:53;1.58;;;1.48;;
8013;SDS011;4052;50.500;8.660;2022-08-14T12:48:20;1.75;;;1.52;;
8013;SDS011;4052;50.500;8.660;2022-08-14T12:50:46;1.90;;;1.80;;
8013;SDS011;4052;50.500;8.660;2022-08-14T12:53:15;2.42;;;2.22;;
8013;SDS011;4052;50.500;8.660;2022-08-14T12:55:42;1.90;;;1.80;;
8013;SDS011;4052;50.500;8.660;2022-08-14T12:58:08;1.52;;;1.42;;
8013;SDS011;4052;50.500;8.660;2022-08-14T13:00:35;2.13;;;1.90;;
8013;SDS011;4052;50.500;8.660;2022-08-14T13:03:02;1.45;;;1.35;;
8013;SDS011;4052;50.500;8.660;2022-08-14T13:05:30;1.58;;;1.48;;
8013;SDS011;4052;50.500;8.660;2022-08-14T13:07:57;1.60;;;1.50;;
8013;SDS011;4052;50.500;8.660;2022-08-14T13:10:23;1.95;;;1.50;;
8013;SDS011;4052;50.500;8.660;2022-08-14T13:12:51;2.00;;;1.55;;
8013;SDS011;4052;50.500;8.660;2022-08-14T13:15:17;1.30;;;1.20;;
8013;SDS011;4052;50.500;8.660;2022-08-14T13:17:47;1.30;;;1.20;;
8013;SDS011;4052;50.500;8.660;2022-08-14T13:20:15;1.13;;;1.02;;
8013;SDS011;4052;50.500;8.660;2022-08-14T13:22:41;1.23;;;1.23;;
8013;SDS011;4052;50.500;8.660;2022-08-14T13:25:09;1.50;;;1.40;;
8013;SDS011;4052;50.500;8.660;2022-08-14T13:27:36;1.70;;;1.42;;
8013;SDS011;4052;50.500;8.660;2022-08-14T13:30:07;2.13;;;1.42;;
8013;SDS011;4052;50.500;8.660;2022-08-14T13:32:34;1.00;;;1.00;;
8013;SDS011;4052;50.500;8.660;2022-08-14T13:35:04;1.30;;;1.20;;
8013;SDS011;4052;50.500;8.660;2022-08-14T13:37:30;1.67;;;1.58;;
8013;SDS011;4052;50.500;8.660;2022-08-14T13:39:57;1.48;;;1.10;;
8013;SDS011;4052;50.500;8.660;2022-08-14T13:42:23;1.40;;;1.23;;
8013;SDS011;4052;50.500;8.660;2022-08-14T13:44:52;1.85;;;1.45;;
8013;SDS011;4052;50.500;8.660;2022-08-14T13:47:18;1.75;;;1.20;;
8013;SDS011;4052;50.500;8.660;2022-08-14T13:49:45;1.38;;;1.27;;
8013;SDS011;4052;50.500;8.660;2022-08-14T13:52:12;1.38;;;1.27;;
8013;SDS011;4052;50.500;8.660;2022-08-14T13:54:41;1.20;;;1.20;;
8013;SDS011;4052;50.500;8.660;2022-08-14T13:57:10;1.30;;;1.20;;
8013;SDS011;4052;50.500;8.660;2022-08-14T13:59:36;1.17;;;1.17;;
8013;SDS011;4052;50.500;8.660;2022-08-14T14:02:08;1.05;;;0.98;;
8013;SDS011;4052;50.500;8.660;2022-08-14T14:04:37;1.38;;;1.27;;
8013;SDS011;4052;50.500;8.660;2022-08-14T14:07:04;1.58;;;1.48;;
8013;SDS011;4052;50.500;8.660;2022-08-14T14:09:32;1.50;;;1.40;;
8013;SDS011;4052;50.500;8.660;2022-08-14T14:11:59;1.40;;;1.30;;
8013;SDS011;4052;50.500;8.660;2022-08-14T14:14:25;1.40;;;1.30;;
8013;SDS011;4052;50.500;8.660;2022-08-14T14:16:51;1.27;;;1.17;;
8013;SDS011;4052;50.500;8.660;2022-08-14T14:19:17;1.25;;;1.15;;
8013;SDS011;4052;50.500;8.660;2022-08-14T14:21:44;1.15;;;1.15;;
8013;SDS011;4052;50.500;8.660;2022-08-14T14:24:10;1.30;;;1.20;;
8013;SDS011;4052;50.500;8.660;2022-08-14T14:26:36;1.52;;;1.30;;
8013;SDS011;4052;50.500;8.660;2022-08-14T14:29:03;2.88;;;1.20;;
8013;SDS011;4052;50.500;8.660;2022-08-14T14:31:30;1.98;;;1.63;;
8013;SDS011;4052;50.500;8.660;2022-08-14T14:34:00;1.38;;;1.27;;
8013;SDS011;4052;50.500;8.660;2022-08-14T14:36:28;1.10;;;1.02;;
8013;SDS011;4052;50.500;8.660;2022-08-14T14:41:25;1.00;;;1.00;;
8013;SDS011;4052;50.500;8.660;2022-08-14T14:43:53;1.83;;;1.58;;
8013;SDS011;4052;50.500;8.660;2022-08-14T14:46:21;1.17;;;1.13;;
8013;SDS011;4052;50.500;8.660;2022-08-14T14:48:48;1.25;;;1.15;;
8013;SDS011;4052;50.500;8.660;2022-08-14T14:51:14;1.27;;;1.23;;
8013;SDS011;4052;50.500;8.660;2022-08-14T14:53:41;1.35;;;1.25;;
8013;SDS011;4052;50.500;8.660;2022-08-14T14:56:08;1.40;;;1.30;;
8013;SDS011;4052;50.500;8.660;2022-08-14T14:58:34;1.50;;;1.40;;
8013;SDS011;4052;50.500;8.660;2022-08-14T15:01:02;1.63;;;1.52;;
8013;SDS011;4052;50.500;8.660;2022-08-14T15:03:28;1.38;;;1.30;;
8013;SDS011;4052;50.500;8.660;2022-08-14T15:05:54;1.40;;;1.30;;
8013;SDS011;4052;50.500;8.660;2022-08-14T15:08:21;1.65;;;1.55;;
8013;SDS011;4052;50.500;8.660;2022-08-14T15:10:47;1.50;;;1.40;;
8013;SDS011;4052;50.500;8.660;2022-08-14T15:13:13;1.38;;;1.23;;
8013;SDS011;4052;50.500;8.660;2022-08-14T15:15:40;1.35;;;1.25;;
8013;SDS011;4052;50.500;8.660;2022-08-14T15:18:07;1.52;;;1.42;;
8013;SDS011;4052;50.500;8.660;2022-08-14T15:20:33;1.60;;;1.50;;
8013;SDS011;4052;50.500;8.660;2022-08-14T15:22:59;1.80;;;1.70;;
8013;SDS011;4052;50.500;8.660;2022-08-14T15:25:25;1.58;;;1.48;;
8013;SDS011;4052;50.500;8.660;2022-08-14T15:27:55;1.30;;;1.20;;
8013;SDS011;4052;50.500;8.660;2022-08-14T15:30:21;1.33;;;1.23;;
8013;SDS011;4052;50.500;8.660;2022-08-14T15:32:47;1.65;;;1.55;;
8013;SDS011;4052;50.500;8.660;2022-08-14T15:35:13;1.60;;;1.50;;
8013;SDS011;4052;50.500;8.660;2022-08-14T15:37:39;1.60;;;1.50;;
8013;SDS011;4052;50.500;8.660;2022-08-14T15:40:05;1.42;;;1.33;;